sensor_id;sensor_type;location;lat;lon;timestamp;temperature;humidity
56436;DHT22;42335;44.872;20.658;2023-07-24T05:38:36;640.00;2432.00
56436;DHT22;42335;44.872;20.658;2023-07-24T05:41:03;640.10;2432.00
56436;DHT22;42335;44.872;20.658;2023-07-24T05:45:56;640.60;2432.00
56436;DHT22;42335;44.872;20.658;2023-07-24T05:48:23;640.40;2432.00
56436;DHT22;42335;44.872;20.658;2023-07-24T09:55:38;947.60;1510.40
56436;DHT22;42335;44.872;20.658;2023-07-24T09:58:07;947.40;1484.80
56436;DHT22;42335;44.872;20.658;2023-07-24T10:00:34;947.50;1408.00
56436;DHT22;42335;44.872;20.658;2023-07-24T10:05:25;948.00;1459.20
56436;DHT22;42335;44.872;20.658;2023-07-24T10:07:51;972.80;1433.60
56436;DHT22;42335;44.872;20.658;2023-07-24T10:10:18;948.10;1433.60
56436;DHT22;42335;44.872;20.658;2023-07-24T10:12:44;948.10;1382.40
56436;DHT22;42335;44.872;20.658;2023-07-24T10:15:10;948.10;1356.80
56436;DHT22;42335;44.872;20.658;2023-07-24T10:17:41;947.70;1331.20
56436;DHT22;42335;44.872;20.658;2023-07-24T10:20:11;948.10;1331.20
56436;DHT22;42335;44.872;20.658;2023-07-24T10:22:40;948.00;1331.20
56436;DHT22;42335;44.872;20.658;2023-07-24T10:25:08;947.90;1305.60
56436;DHT22;42335;44.872;20.658;2023-07-24T10:27:42;947.90;1305.60
56436;DHT22;42335;44.872;20.658;2023-07-24T10:30:10;948.00;1305.60
56436;DHT22;42335;44.872;20.658;2023-07-24T10:32:45;948.00;1305.60
56436;DHT22;42335;44.872;20.658;2023-07-24T10:35:12;948.00;1254.40
56436;DHT22;42335;44.872;20.658;2023-07-24T10:37:38;948.10;1254.40
56436;DHT22;42335;44.872;20.658;2023-07-24T10:40:04;948.10;1254.40
56436;DHT22;42335;44.872;20.658;2023-07-24T10:42:30;948.10;1228.80
56436;DHT22;42335;44.872;20.658;2023-07-24T10:45:09;972.90;1280.00
56436;DHT22;42335;44.872;20.658;2023-07-24T10:47:35;972.90;1280.00
56436;DHT22;42335;44.872;20.658;2023-07-24T10:50:02;948.10;1228.80
56436;DHT22;42335;44.872;20.658;2023-07-24T10:52:31;948.10;1254.40
56436;DHT22;42335;44.872;20.658;2023-07-24T10:55:00;948.10;1254.40
56436;DHT22;42335;44.872;20.658;2023-07-24T10:57:28;973.10;1280.00
56436;DHT22;42335;44.872;20.658;2023-07-24T10:59:54;973.10;1254.40
56436;DHT22;42335;44.872;20.658;2023-07-24T11:02:20;973.00;1280.00
56436;DHT22;42335;44.872;20.658;2023-07-24T11:04:46;973.00;1228.80
56436;DHT22;42335;44.872;20.658;2023-07-24T11:07:12;972.90;1228.80
56436;DHT22;42335;44.872;20.658;2023-07-24T11:09:39;973.00;1228.80
56436;DHT22;42335;44.872;20.658;2023-07-24T11:12:18;973.00;1228.80
56436;DHT22;42335;44.872;20.658;2023-07-24T11:14:51;973.00;1228.80
56436;DHT22;42335;44.872;20.658;2023-07-24T11:17:20;948.10;1228.80
56436;DHT22;42335;44.872;20.658;2023-07-24T11:19:45;972.80;1254.40
56436;DHT22;42335;44.872;20.658;2023-07-24T11:22:12;973.20;1254.40
56436;DHT22;42335;44.872;20.658;2023-07-24T11:24:47;973.30;1228.80
56436;DHT22;42335;44.872;20.658;2023-07-24T11:27:14;973.40;1203.20
56436;DHT22;42335;44.872;20.658;2023-07-24T11:32:07;973.70;1177.60
56436;DHT22;42335;44.872;20.658;2023-07-24T11:34:33;973.70;1152.00
56436;DHT22;42335;44.872;20.658;2023-07-24T11:46:51;998.60;1203.20
56436;DHT22;42335;44.872;20.658;2023-07-24T11:49:22;973.70;1177.60
56436;DHT22;42335;44.872;20.658;2023-07-24T11:51:48;973.60;1177.60
56436;DHT22;42335;44.872;20.658;2023-07-24T11:54:15;973.60;1177.60
56436;DHT22;42335;44.872;20.658;2023-07-24T11:56:40;973.70;1177.60
56436;DHT22;42335;44.872;20.658;2023-07-24T11:59:12;973.70;1152.00
56436;DHT22;42335;44.872;20.658;2023-07-24T12:01:38;973.70;1177.60
56436;DHT22;42335;44.872;20.658;2023-07-24T12:04:04;973.70;1152.00
56436;DHT22;42335;44.872;20.658;2023-07-24T12:06:32;973.60;1177.60
56436;DHT22;42335;44.872;20.658;2023-07-24T12:09:05;973.60;1152.00
56436;DHT22;42335;44.872;20.658;2023-07-24T12:11:31;973.60;1152.00
56436;DHT22;42335;44.872;20.658;2023-07-24T12:13:58;973.50;1152.00
56436;DHT22;42335;44.872;20.658;2023-07-24T12:35:52;973.70;1126.40
56436;DHT22;42335;44.872;20.658;2023-07-24T12:38:18;973.00;1152.00
56436;DHT22;42335;44.872;20.658;2023-07-24T12:40:44;972.90;1177.60
56436;DHT22;42335;44.872;20.658;2023-07-24T12:43:10;973.20;1152.00
56436;DHT22;42335;44.872;20.658;2023-07-24T12:45:35;973.20;1152.00
56436;DHT22;42335;44.872;20.658;2023-07-24T12:48:01;973.40;1177.60
56436;DHT22;42335;44.872;20.658;2023-07-24T12:50:27;973.40;1152.00
56436;DHT22;42335;44.872;20.658;2023-07-24T13:07:29;998.60;1100.80
56436;DHT22;42335;44.872;20.658;2023-07-24T13:09:55;973.70;1075.20
56436;DHT22;42335;44.872;20.658;2023-07-24T13:12:20;973.70;1100.80
56436;DHT22;42335;44.872;20.658;2023-07-24T13:14:46;973.60;1126.40
56436;DHT22;42335;44.872;20.658;2023-07-24T13:17:12;973.60;1100.80
56436;DHT22;42335;44.872;20.658;2023-07-24T13:24:30;973.70;1075.20
56436;DHT22;42335;44.872;20.658;2023-07-24T13:26:55;973.60;1100.80
56436;DHT22;42335;44.872;20.658;2023-07-24T13:29:21;973.60;1075.20
56436;DHT22;42335;44.872;20.658;2023-07-24T13:34:13;973.20;1100.80
56436;DHT22;42335;44.872;20.658;2023-07-24T13:36:39;973.20;1126.40
56436;DHT22;42335;44.872;20.658;2023-07-24T13:39:04;973.20;1126.40
56436;DHT22;42335;44.872;20.658;2023-07-24T13:41:30;973.20;1100.80
56436;DHT22;42335;44.872;20.658;2023-07-24T13:43:55;973.30;1100.80
56436;DHT22;42335;44.872;20.658;2023-07-24T13:46:21;973.40;1126.40
56436;DHT22;42335;44.872;20.658;2023-07-24T13:48:47;973.20;1126.40
56436;DHT22;42335;44.872;20.658;2023-07-24T13:51:12;973.20;1100.80
56436;DHT22;42335;44.872;20.658;2023-07-24T13:53:38;973.30;1100.80
56436;DHT22;42335;44.872;20.658;2023-07-24T14:03:22;973.40;1126.40
56436;DHT22;42335;44.872;20.658;2023-07-24T14:05:51;973.20;1126.40
56436;DHT22;42335;44.872;20.658;2023-07-24T14:08:17;973.20;1126.40
56436;DHT22;42335;44.872;20.658;2023-07-24T14:10:42;973.10;1126.40
56436;DHT22;42335;44.872;20.658;2023-07-24T14:13:08;973.10;1126.40
56436;DHT22;42335;44.872;20.658;2023-07-24T14:15:34;972.90;1152.00
56436;DHT22;42335;44.872;20.658;2023-07-24T14:17:59;973.10;1126.40
56436;DHT22;42335;44.872;20.658;2023-07-24T14:20:25;972.80;1152.00
56436;DHT22;42335;44.872;20.658;2023-07-24T14:22:51;972.80;1152.00
56436;DHT22;42335;44.872;20.658;2023-07-24T14:30:09;973.10;1126.40
56436;DHT22;42335;44.872;20.658;2023-07-24T14:32:36;972.80;1152.00
56436;DHT22;42335;44.872;20.658;2023-07-24T14:35:01;948.10;1152.00
56436;DHT22;42335;44.872;20.658;2023-07-24T14:37:27;948.10;1152.00
56436;DHT22;42335;44.872;20.658;2023-07-24T14:42:19;948.10;1152.00
56436;DHT22;42335;44.872;20.658;2023-07-24T15:28:36;896.90;1254.40
56436;DHT22;42335;44.872;20.658;2023-07-24T15:31:02;896.80;1254.40
56436;DHT22;42335;44.872;20.658;2023-07-24T15:33:27;896.60;1280.00
56436;DHT22;42335;44.872;20.658;2023-07-24T15:35:54;896.80;1280.00
56436;DHT22;42335;44.872;20.658;2023-07-24T15:38:20;896.70;1305.60
56436;DHT22;42335;44.872;20.658;2023-07-24T15:40:45;896.60;1305.60
56436;DHT22;42335;44.872;20.658;2023-07-24T15:43:11;896.60;1305.60
56436;DHT22;42335;44.872;20.658;2023-07-24T15:45:37;896.70;1280.00
56436;DHT22;42335;44.872;20.658;2023-07-24T15:48:03;896.60;1280.00
56436;DHT22;42335;44.872;20.658;2023-07-24T15:50:29;896.70;1280.00
56436;DHT22;42335;44.872;20.658;2023-07-24T16:44:09;870.60;1561.60
56436;DHT22;42335;44.872;20.658;2023-07-24T16:46:36;870.40;1587.20
56436;DHT22;42335;44.872;20.658;2023-07-24T16:49:02;870.50;1587.20
56436;DHT22;42335;44.872;20.658;2023-07-24T16:51:30;870.50;1561.60
56436;DHT22;42335;44.872;20.658;2023-07-24T16:53:56;845.70;1587.20
56436;DHT22;42335;44.872;20.658;2023-07-24T17:37:46;819.60;1766.40
56436;DHT22;42335;44.872;20.658;2023-07-24T18:11:53;794.30;1868.80
56436;DHT22;42335;44.872;20.658;2023-07-24T18:38:46;793.80;1894.40
56436;DHT22;42335;44.872;20.658;2023-07-24T18:41:12;793.70;1945.60
56436;DHT22;42335;44.872;20.658;2023-07-24T18:43:37;793.60;1945.60
56436;DHT22;42335;44.872;20.658;2023-07-24T19:20:12;742.90;2176.00
56436;DHT22;42335;44.872;20.658;2023-07-24T19:22:38;742.80;2176.00
56436;DHT22;42335;44.872;20.658;2023-07-24T19:25:05;742.80;2304.00
56436;DHT22;42335;44.872;20.658;2023-07-24T19:27:31;742.50;2278.40
56436;DHT22;42335;44.872;20.658;2023-07-24T19:29:59;742.50;2304.00
56436;DHT22;42335;44.872;20.658;2023-07-24T19:32:28;742.50;2355.20
56436;DHT22;42335;44.872;20.658;2023-07-24T19:34:54;742.40;2380.80
56436;DHT22;42335;44.872;20.658;2023-07-24T19:37:22;717.70;2432.00
